Palmers Crossing, Mississippi
Current Conditions -  °F | °C
As of 12:08 AM on Sunday 23 Nov 2014 (Local Time) from KHBG Reporting Station
Overcast Overcast  
Wind Chill: 62°   Ceiling: 900
Heat Index: 62°   Visibility: 10mi
Dew Point: 58°   Wind: 8mph
Humidity: 86%   Direction: 110°ESE
Pressure: 29.93"   Gusts: NA
Location:  31.1996°N, 89.2694°W
Report Text: KHBG 230608Z AUTO 11007KT 10SM OVC009 17/14 A2993 RMK AO2 T01670144
Loading
Personal Weather Stations






























Interactive Weather Map New forecast layout! Learn more

10-Day Weather Forecast

Advertisements
Track Severe Weather on mobile